Terminal Aerodrome Forecast
Issued by NWS Wilmington, OH

Current Version | Previous Version | Text Only | Print | Product List | Glossary Off
Versions: 1 2 3 4 5 6 7 8 9 10 11 12 13 14 15 16 17 18 19 20 21 22 23 24 25 26 27

000
FTUS41 KILN 201600 AAB
TAFCMH
TAF AMD
KCMH 201607Z 2016/2112 21012G22KT P6SM FEW026 BKN050 OVC250
     FM202300 21012KT P6SM SCT050
     FM210700 22012KT P6SM VCSH BKN040
     FM211000 23010KT P6SM VCSH BKN025=

USA.gov is the U.S. government's official web portal to all federal, state and local government web resources and services.